Time;durP1;ratioP1;P1;durP2;ratioP2;P2;SDS_P1;SDS_P2;PMS_P1;PMS_P2;Temp;Humidity;BMP_temperature;BMP_pressure;BME280_temperature;BME280_humidity;BME280_pressure;Samples;Min_cycle;Max_cycle;Signal;HPM_P1;HPM_P2
2022/06/04 00:00:10;;;;;;;5.13;1.58;;;22.20;66.40;;;;;;5016606;28;20029;-69
2022/06/04 00:02:39;;;;;;;;;;;22.20;66.20;;;;;;5016745;28;20053;-67
2022/06/04 00:05:07;;;;;;;4.32;1.30;;;22.10;66.00;;;;;;5016274;28;20004;-68
2022/06/04 00:07:32;;;;;;;5.00;1.67;;;22.20;65.90;;;;;;5016417;28;20034;-68
2022/06/04 00:15:34;;;;;;;2.40;1.40;;;22.10;65.60;;;;;;4986053;28;20041;-69
2022/06/04 00:18:00;;;;;;;8.70;1.75;;;22.10;65.40;;;;;;5016236;28;20098;-68
2022/06/04 00:20:26;;;;;;;7.03;1.50;;;22.00;65.50;;;;;;5015960;28;20044;-69
2022/06/04 00:23:00;;;;;;;4.28;1.30;;;22.00;65.50;;;;;;5016120;28;20025;-69
2022/06/04 00:25:26;;;;;;;4.35;1.50;;;22.10;65.30;;;;;;4998848;28;20395;-69
2022/06/04 00:27:51;;;;;;;8.25;1.10;;;21.90;64.80;;;;;;5016063;28;20030;-69
2022/06/04 00:30:17;;;;;;;2.25;1.30;;;22.00;64.90;;;;;;5016138;28;20041;-68
2022/06/04 00:32:43;;;;;;;3.63;1.42;;;21.90;64.90;;;;;;5015898;28;20495;-68
2022/06/04 00:35:08;;;;;;;4.60;1.40;;;21.90;64.90;;;;;;5015839;28;20101;-69
2022/06/04 00:37:35;;;;;;;5.03;1.40;;;21.90;64.50;;;;;;5016099;28;20026;-68
2022/06/04 00:40:03;;;;;;;2.53;1.30;;;21.90;64.20;;;;;;5015694;28;20033;-69
2022/06/04 00:42:28;;;;;;;2.78;1.40;;;21.80;64.40;;;;;;5015744;28;20025;-69
2022/06/04 00:45:26;;;;;;;3.20;1.48;;;21.80;64.30;;;;;;5015574;28;20034;-68
2022/06/04 00:47:52;;;;;;;4.25;1.30;;;21.80;64.40;;;;;;4998014;28;20030;-69
2022/06/04 00:50:20;;;;;;;4.65;1.40;;;21.90;64.10;;;;;;5015694;28;20058;-69
2022/06/04 00:52:47;;;;;;;4.20;1.30;;;21.90;63.90;;;;;;5015656;28;20029;-69
2022/06/04 00:55:14;;;;;;;5.00;1.65;;;21.80;64.00;;;;;;5015736;28;20605;-68
2022/06/04 00:58:06;;;;;;;4.10;1.70;;;21.90;63.80;;;;;;5015839;28;20029;-68
2022/06/04 01:00:50;;;;;;;5.57;1.37;;;21.70;63.90;;;;;;5015575;28;20033;-67
2022/06/04 01:03:49;;;;;;;3.58;1.38;;;21.50;64.10;;;;;;5014982;28;20033;-68
2022/06/04 01:06:41;;;;;;;4.47;1.20;;;21.50;64.50;;;;;;5015613;28;20026;-68
2022/06/04 01:09:06;;;;;;;7.57;1.23;;;21.60;64.10;;;;;;5015390;28;20031;-69
2022/06/04 01:12:29;;;;;;;2.65;1.13;;;21.50;64.20;;;;;;5015406;28;20088;-69
2022/06/04 01:14:51;;;;;;;3.50;1.30;;;21.50;64.00;;;;;;5002221;28;20084;-69
2022/06/04 01:17:26;;;;;;;4.10;1.40;;;21.50;64.00;;;;;;5015219;28;20052;-68
2022/06/04 01:20:27;;;;;;;2.63;1.23;;;21.50;64.00;;;;;;5015088;28;20049;-68
2022/06/04 01:22:58;;;;;;;3.25;1.55;;;21.50;64.40;;;;;;4916694;29;20046;-68
2022/06/04 01:25:43;;;;;;;3.15;1.10;;;21.50;64.60;;;;;;4998926;28;20066;-67
2022/06/04 01:28:11;;;;;;;5.00;1.70;;;21.40;64.70;;;;;;5015174;28;20022;-69
2022/06/04 01:30:54;;;;;;;2.45;1.58;;;21.40;65.00;;;;;;5014998;28;20026;-68
2022/06/04 01:33:22;;;;;;;2.78;1.40;;;21.30;65.00;;;;;;5015023;28;20022;-68
2022/06/04 01:35:57;;;;;;;2.63;1.20;;;21.30;64.90;;;;;;5014938;28;20029;-68
2022/06/04 01:38:36;;;;;;;2.63;1.35;;;21.40;64.80;;;;;;5007991;28;20108;-68
2022/06/04 01:41:11;;;;;;;3.95;1.05;;;21.40;64.50;;;;;;5014486;28;20034;-70
2022/06/04 01:43:42;;;;;;;6.95;1.77;;;21.30;64.50;;;;;;5014339;28;20029;-68
2022/06/04 01:46:22;;;;;;;3.37;1.40;;;21.10;64.80;;;;;;5014277;28;20149;-68
2022/06/04 01:48:53;;;;;;;4.18;1.38;;;21.10;64.90;;;;;;5014740;28;20430;-68
2022/06/04 01:51:22;;;;;;;3.33;1.15;;;21.20;64.80;;;;;;5014641;28;20025;-68
2022/06/04 01:53:52;;;;;;;4.28;1.70;;;21.20;64.70;;;;;;5014253;28;20057;-68
2022/06/04 01:56:22;;;;;;;3.35;1.70;;;21.20;64.60;;;;;;5014626;28;20026;-68
2022/06/04 01:58:53;;;;;;;5.47;1.30;;;21.20;64.50;;;;;;5014428;28;20026;-69
2022/06/04 02:01:24;;;;;;;4.55;1.50;;;21.10;64.70;;;;;;5014079;28;20416;-68
2022/06/04 02:04:01;;;;;;;4.53;1.60;;;21.10;64.80;;;;;;5014386;28;20172;-67
2022/06/04 02:06:34;;;;;;;3.05;1.67;;;21.10;64.90;;;;;;5014276;28;20037;-68
2022/06/04 02:09:11;;;;;;;5.10;1.30;;;21.20;64.70;;;;;;5014131;28;20037;-68
2022/06/04 02:11:38;;;;;;;3.63;1.55;;;21.20;64.70;;;;;;5014193;28;20490;-67
2022/06/04 02:14:06;;;;;;;4.00;1.17;;;21.10;64.80;;;;;;5014288;28;20022;-68
2022/06/04 02:16:42;;;;;;;1.63;1.50;;;21.00;65.00;;;;;;5013839;28;20037;-67
2022/06/04 02:19:08;;;;;;;3.58;1.30;;;21.00;65.00;;;;;;5014065;28;20541;-68
2022/06/04 02:21:34;;;;;;;2.88;1.70;;;21.00;65.00;;;;;;4996329;28;20022;-68
2022/06/04 02:24:01;;;;;;;8.43;1.77;;;21.10;64.70;;;;;;5013970;28;20108;-68
2022/06/04 02:26:28;;;;;;;6.20;1.80;;;21.10;64.50;;;;;;5014039;28;20376;-68
2022/06/04 02:28:58;;;;;;;4.43;1.73;;;21.00;64.80;;;;;;5013974;28;20017;-68
2022/06/04 02:31:51;;;;;;;5.70;1.67;;;21.00;64.80;;;;;;5013506;28;20018;-68
2022/06/04 02:34:23;;;;;;;4.35;1.40;;;21.00;64.70;;;;;;5013845;28;20030;-68
2022/06/04 02:37:03;;;;;;;3.83;1.53;;;21.00;64.60;;;;;;5013758;28;20054;-68
2022/06/04 02:39:40;;;;;;;2.70;1.65;;;20.80;64.80;;;;;;5013673;28;20034;-68
2022/06/04 02:42:08;;;;;;;4.30;1.90;;;20.70;65.20;;;;;;5013762;28;20444;-67
2022/06/04 02:44:48;;;;;;;3.40;1.60;;;20.70;65.20;;;;;;5013193;28;20041;-68
2022/06/04 02:47:17;;;;;;;3.75;1.80;;;20.60;65.30;;;;;;5013579;28;20430;-68
2022/06/04 02:50:02;;;;;;;4.40;1.38;;;20.80;65.70;;;;;;5013792;28;20014;-67
2022/06/04 02:52:30;;;;;;;2.05;1.52;;;20.70;64.70;;;;;;5013592;28;20021;-68
2022/06/04 02:55:01;;;;;;;4.22;2.03;;;20.70;64.80;;;;;;4995919;28;20032;-68
2022/06/04 02:57:31;;;;;;;4.38;1.60;;;20.60;65.50;;;;;;5013352;28;20105;-68
2022/06/04 02:59:57;;;;;;;5.45;1.77;;;20.60;64.90;;;;;;5013432;28;20033;-68
2022/06/04 03:02:26;;;;;;;2.65;1.52;;;20.40;65.10;;;;;;5013505;28;20048;-68
2022/06/04 03:04:55;;;;;;;4.03;1.70;;;20.40;65.10;;;;;;5013512;28;20096;-68
2022/06/04 03:07:23;;;;;;;4.75;1.60;;;20.40;65.20;;;;;;5013425;28;20459;-68
2022/06/04 03:09:54;;;;;;;2.55;1.48;;;20.60;65.10;;;;;;5013085;28;20475;-68
2022/06/04 03:12:20;;;;;;;3.05;1.73;;;20.60;64.70;;;;;;5013320;28;20034;-68
2022/06/04 03:14:46;;;;;;;3.65;1.85;;;20.50;64.50;;;;;;5013332;28;20549;-68
2022/06/04 03:17:12;;;;;;;2.40;1.58;;;20.60;64.20;;;;;;5013337;28;20033;-68
2022/06/04 03:19:38;;;;;;;3.58;1.65;;;20.50;64.20;;;;;;5013293;28;20379;-68
2022/06/04 03:22:05;;;;;;;3.20;1.60;;;20.50;64.20;;;;;;5013116;28;20022;-68
2022/06/04 03:24:31;;;;;;;3.42;1.58;;;20.30;64.40;;;;;;5013178;28;20041;-68
2022/06/04 03:26:56;;;;;;;3.75;1.30;;;20.40;64.50;;;;;;5013303;28;20018;-68
2022/06/04 03:29:22;;;;;;;2.67;1.60;;;20.40;64.40;;;;;;5013015;28;20030;-67
2022/06/04 03:31:47;;;;;;;3.60;1.60;;;20.40;64.20;;;;;;4995656;28;20025;-68
2022/06/04 03:34:13;;;;;;;3.20;1.60;;;20.20;64.80;;;;;;5013387;28;20029;-67
2022/06/04 03:36:39;;;;;;;2.60;1.50;;;20.30;64.60;;;;;;5012882;28;20467;-68
2022/06/04 03:39:07;;;;;;;4.30;1.63;;;20.30;64.40;;;;;;5013085;28;20495;-68
2022/06/04 03:41:32;;;;;;;2.92;1.83;;;20.30;64.20;;;;;;5013305;28;20048;-68
2022/06/04 03:43:58;;;;;;;4.32;1.77;;;20.40;64.30;;;;;;4995142;28;20457;-68
2022/06/04 03:46:25;;;;;;;3.95;1.85;;;20.30;64.40;;;;;;5012975;28;20022;-68
2022/06/04 03:48:55;;;;;;;4.50;2.00;;;20.40;64.20;;;;;;5013037;28;20026;-68
2022/06/04 03:51:21;;;;;;;4.07;1.90;;;20.40;64.10;;;;;;5012953;28;20049;-68
2022/06/04 03:53:47;;;;;;;3.00;1.88;;;20.30;64.30;;;;;;5012840;28;20044;-68
2022/06/04 03:56:13;;;;;;;9.13;2.08;;;20.20;64.40;;;;;;5013145;28;20475;-68
2022/06/04 03:58:38;;;;;;;5.18;1.63;;;20.00;64.70;;;;;;5012665;28;20376;-68
2022/06/04 04:01:13;;;;;;;3.33;1.60;;;20.10;65.10;;;;;;5012929;28;20368;-68
2022/06/04 04:03:39;;;;;;;3.80;1.48;;;20.20;64.80;;;;;;5012609;28;20045;-68
2022/06/04 04:06:05;;;;;;;2.85;1.80;;;20.20;64.50;;;;;;5012712;28;20022;-68
2022/06/04 04:08:30;;;;;;;4.78;1.60;;;20.20;64.70;;;;;;5012978;28;20073;-68
2022/06/04 04:10:56;;;;;;;4.28;1.77;;;20.20;64.60;;;;;;5012656;28;20037;-68
2022/06/04 04:13:22;;;;;;;3.95;1.80;;;20.20;64.60;;;;;;5012644;28;20115;-68
2022/06/04 04:15:48;;;;;;;3.00;1.98;;;20.10;64.60;;;;;;5012964;28;20108;-68
2022/06/04 04:18:13;;;;;;;2.95;1.50;;;20.10;64.70;;;;;;5014534;28;20018;-68
2022/06/04 04:20:41;;;;;;;3.42;1.50;;;20.00;64.50;;;;;;5016431;28;20026;-68
2022/06/04 04:23:08;;;;;;;5.80;1.55;;;19.90;64.70;;;;;;5016124;28;20056;-68
2022/06/04 04:25:36;;;;;;;3.13;1.70;;;19.90;64.80;;;;;;5015936;28;20030;-68
2022/06/04 04:28:02;;;;;;;4.53;2.20;;;20.00;64.80;;;;;;4998525;28;20026;-67
2022/06/04 04:30:30;;;;;;;4.07;1.70;;;19.90;64.60;;;;;;5016102;28;20029;-68
2022/06/04 04:32:56;;;;;;;4.30;1.75;;;19.80;65.00;;;;;;5016102;28;20025;-68
2022/06/04 04:35:25;;;;;;;11.50;1.92;;;19.90;64.90;;;;;;5016006;28;20426;-68
2022/06/04 04:37:51;;;;;;;2.95;1.65;;;19.90;64.40;;;;;;5016076;28;20030;-68
2022/06/04 04:40:19;;;;;;;4.60;1.95;;;19.90;64.70;;;;;;5015508;28;20053;-68
2022/06/04 04:42:45;;;;;;;3.78;2.13;;;19.80;64.70;;;;;;4998445;28;20045;-68
2022/06/04 04:45:11;;;;;;;5.13;1.90;;;19.60;65.10;;;;;;5015791;28;20391;-68
2022/06/04 04:47:40;;;;;;;6.53;1.50;;;19.50;65.20;;;;;;5016000;28;20022;-68
2022/06/04 04:50:08;;;;;;;3.88;1.33;;;19.50;65.30;;;;;;5015347;28;20108;-68
2022/06/04 04:52:34;;;;;;;5.18;1.63;;;19.50;65.10;;;;;;5015830;28;20115;-68
2022/06/04 04:55:00;;;;;;;4.55;1.80;;;19.50;65.10;;;;;;4997855;28;20022;-68
2022/06/04 04:57:26;;;;;;;2.72;1.77;;;19.50;65.00;;;;;;5015651;28;20029;-68
2022/06/04 04:59:51;;;;;;;2.70;1.70;;;19.50;64.90;;;;;;4998069;28;20445;-67
2022/06/04 05:02:17;;;;;;;3.15;1.80;;;19.40;65.20;;;;;;5007693;28;20037;-67
2022/06/04 05:04:42;;;;;;;5.25;1.60;;;19.40;65.40;;;;;;5014834;28;20404;-67
2022/06/04 05:07:11;;;;;;;4.38;1.70;;;19.40;65.60;;;;;;5013713;28;20097;-67
2022/06/04 05:09:40;;;;;;;1.90;1.42;;;19.40;65.50;;;;;;5013561;28;20056;-68
2022/06/04 05:12:09;;;;;;;5.43;1.92;;;19.30;65.50;;;;;;5014855;28;20426;-67
2022/06/04 05:14:36;;;;;;;6.38;1.80;;;19.30;65.70;;;;;;5015344;28;20028;-67
2022/06/04 05:17:01;;;;;;;3.25;1.90;;;19.40;65.80;;;;;;4997775;28;20422;-68
2022/06/04 05:19:27;;;;;;;1.95;1.42;;;19.40;65.60;;;;;;5015173;28;20030;-67
2022/06/04 05:21:53;;;;;;;4.95;2.13;;;19.40;65.40;;;;;;5015325;28;20071;-68
2022/06/04 05:24:20;;;;;;;5.30;1.88;;;19.30;65.60;;;;;;5014653;28;20493;-67
2022/06/04 05:26:46;;;;;;;3.00;1.80;;;19.20;66.00;;;;;;5015285;28;20029;-68
2022/06/04 05:29:12;;;;;;;4.90;2.10;;;19.20;66.10;;;;;;5013842;28;20026;-68
2022/06/04 05:31:39;;;;;;;5.15;2.20;;;19.30;66.00;;;;;;4997439;28;20387;-68
2022/06/04 05:34:06;;;;;;;3.88;2.10;;;19.20;66.10;;;;;;5014941;28;20046;-68
2022/06/04 05:36:32;;;;;;;5.07;1.88;;;19.20;66.30;;;;;;5014935;28;20026;-68
2022/06/04 05:38:57;;;;;;;3.88;1.70;;;19.20;66.50;;;;;;5014735;28;20036;-68
2022/06/04 05:41:23;;;;;;;2.80;1.75;;;19.20;66.50;;;;;;5014687;28;20030;-68
2022/06/04 05:43:49;;;;;;;2.65;1.55;;;19.30;66.10;;;;;;5014904;28;20080;-68
2022/06/04 05:46:15;;;;;;;3.53;2.00;;;19.40;66.00;;;;;;5014578;28;20025;-68
2022/06/04 05:48:45;;;;;;;3.10;2.03;;;19.30;65.90;;;;;;5014887;28;20025;-68
2022/06/04 05:51:13;;;;;;;4.43;2.33;;;19.30;66.20;;;;;;5014649;28;20109;-68
2022/06/04 05:53:39;;;;;;;5.70;2.50;;;19.20;66.20;;;;;;5014365;28;20045;-67
2022/06/04 05:56:22;;;;;;;5.75;2.35;;;19.10;66.60;;;;;;5014360;28;20360;-68
2022/06/04 05:58:50;;;;;;;4.60;2.00;;;19.10;66.70;;;;;;5014446;28;20026;-68
2022/06/04 06:01:18;;;;;;;4.10;1.90;;;19.10;66.90;;;;;;5014299;28;20097;-68
2022/06/04 06:03:44;;;;;;;3.63;1.80;;;19.10;67.20;;;;;;5014240;28;20460;-67
2022/06/04 06:06:15;;;;;;;2.63;1.95;;;19.20;66.80;;;;;;5014414;28;20029;-67
2022/06/04 06:08:41;;;;;;;6.25;2.17;;;19.40;66.60;;;;;;5013855;28;20029;-67
2022/06/04 06:11:09;;;;;;;3.70;2.03;;;19.40;66.50;;;;;;5014263;28;20034;-67
2022/06/04 06:13:35;;;;;;;6.15;2.35;;;19.40;66.50;;;;;;4999030;28;20030;-67
2022/06/04 06:16:09;;;;;;;6.15;2.40;;;19.40;66.40;;;;;;4997753;28;20536;-67
2022/06/04 06:18:35;;;;;;;5.40;2.15;;;19.40;66.40;;;;;;4999329;28;20034;-67
2022/06/04 06:21:09;;;;;;;5.15;2.35;;;19.40;66.60;;;;;;5007915;28;20025;-66
2022/06/04 06:23:35;;;;;;;4.35;2.50;;;19.50;66.50;;;;;;4993866;28;20026;-67
2022/06/04 06:26:09;;;;;;;5.80;2.15;;;19.50;66.40;;;;;;5008422;28;20368;-67
2022/06/04 06:28:35;;;;;;;4.82;1.90;;;19.60;66.50;;;;;;5012763;28;20079;-67
2022/06/04 06:31:02;;;;;;;3.72;2.15;;;19.60;66.60;;;;;;5011961;28;20053;-67
2022/06/04 06:33:28;;;;;;;3.35;2.30;;;19.60;66.50;;;;;;4999324;28;20097;-67
2022/06/04 06:35:59;;;;;;;5.03;2.33;;;19.60;66.90;;;;;;5012472;28;20041;-66
2022/06/04 06:38:24;;;;;;;5.82;2.60;;;19.50;67.10;;;;;;5009098;28;20026;-66
2022/06/04 06:40:52;;;;;;;3.60;2.60;;;19.40;67.20;;;;;;5007027;28;20529;-67
2022/06/04 06:43:18;;;;;;;6.22;2.13;;;19.40;67.40;;;;;;5012054;28;20200;-65
2022/06/04 06:45:44;;;;;;;3.00;2.10;;;19.50;67.90;;;;;;5007805;28;20112;-64
2022/06/04 06:48:10;;;;;;;3.70;2.20;;;19.70;67.20;;;;;;5011047;28;20029;-68
2022/06/04 06:50:36;;;;;;;10.32;2.20;;;19.80;67.10;;;;;;5011550;28;20026;-67
2022/06/04 06:53:03;;;;;;;6.53;2.38;;;19.90;66.90;;;;;;5002810;28;20080;-70
2022/06/04 06:55:28;;;;;;;3.90;2.35;;;19.90;66.90;;;;;;4995810;28;20022;-69
2022/06/04 06:57:54;;;;;;;5.72;2.92;;;19.70;67.50;;;;;;5011657;28;20033;-69
2022/06/04 07:00:19;;;;;;;3.92;2.53;;;19.60;67.80;;;;;;5012958;28;20022;-67
2022/06/04 07:02:45;;;;;;;6.70;3.00;;;19.60;68.10;;;;;;5012976;28;20038;-69
2022/06/04 07:05:11;;;;;;;4.65;2.10;;;19.50;68.30;;;;;;5013069;28;20414;-70
2022/06/04 07:07:37;;;;;;;3.85;2.70;;;19.60;68.60;;;;;;4994630;28;20045;-69
2022/06/04 07:10:04;;;;;;;4.53;2.53;;;19.60;68.30;;;;;;5013210;28;20072;-66
2022/06/04 07:12:31;;;;;;;4.32;2.50;;;19.60;68.30;;;;;;5012916;28;20475;-68
2022/06/04 07:14:57;;;;;;;7.25;3.03;;;19.70;68.30;;;;;;5013423;28;20030;-70
2022/06/04 07:17:23;;;;;;;7.03;3.20;;;19.80;68.40;;;;;;5012907;28;20026;-69
2022/06/04 07:19:48;;;;;;;6.78;2.90;;;19.80;68.40;;;;;;5013140;28;20037;-70
2022/06/04 07:22:14;;;;;;;5.63;3.08;;;19.70;68.60;;;;;;5012947;28;20060;-69
2022/06/04 07:24:40;;;;;;;4.93;3.47;;;19.60;68.50;;;;;;5013060;28;20483;-67
2022/06/04 07:27:08;;;;;;;6.05;2.58;;;19.60;69.00;;;;;;5011320;28;20352;-70
2022/06/04 07:29:34;;;;;;;5.68;3.33;;;19.70;69.60;;;;;;5016250;28;20035;-69
2022/06/04 07:31:59;;;;;;;4.60;3.53;;;19.70;68.80;;;;;;5009843;28;20487;-69
2022/06/04 07:34:25;;;;;;;3.95;3.03;;;19.60;68.80;;;;;;5003978;28;20478;-67
2022/06/04 07:36:52;;;;;;;6.57;3.10;;;19.60;69.20;;;;;;5012898;28;20026;-69
2022/06/04 07:39:18;;;;;;;9.45;3.88;;;19.70;69.20;;;;;;5011075;28;20038;-70
2022/06/04 07:41:47;;;;;;;5.60;3.10;;;19.70;69.20;;;;;;5010158;28;20029;-66
2022/06/04 07:44:16;;;;;;;7.03;3.92;;;19.70;69.30;;;;;;5009049;28;20045;-70
2022/06/04 07:46:44;;;;;;;5.38;3.58;;;19.60;69.30;;;;;;5012756;28;20387;-66
2022/06/04 07:49:11;;;;;;;6.32;3.53;;;19.70;69.50;;;;;;5004605;28;20023;-67
2022/06/04 07:51:37;;;;;;;5.32;4.10;;;19.70;69.60;;;;;;5001643;28;20066;-68
2022/06/04 07:54:04;;;;;;;7.03;3.58;;;19.80;69.60;;;;;;4999108;28;20092;-67
2022/06/04 07:56:30;;;;;;;7.65;3.90;;;19.90;69.60;;;;;;5003759;28;20026;-70
2022/06/04 07:58:56;;;;;;;4.80;3.90;;;19.90;69.50;;;;;;5016393;28;20030;-65
2022/06/04 08:01:22;;;;;;;8.48;4.03;;;20.00;69.70;;;;;;5009770;28;20061;-66
2022/06/04 08:03:50;;;;;;;5.28;4.03;;;20.00;69.60;;;;;;5013872;28;20128;-71
2022/06/04 08:06:18;;;;;;;8.88;4.40;;;20.10;69.30;;;;;;5002722;28;20380;-65
2022/06/04 08:08:45;;;;;;;5.88;4.30;;;20.00;69.30;;;;;;4997173;28;20037;-66
2022/06/04 08:11:32;;;;;;;5.75;4.18;;;20.00;69.40;;;;;;5005923;28;20027;-67
2022/06/04 08:14:03;;;;;;;8.25;4.63;;;20.00;69.70;;;;;;5012860;28;20387;-66
2022/06/04 08:16:30;;;;;;;5.03;3.45;;;20.00;69.70;;;;;;5014764;28;20073;-67
2022/06/04 08:18:55;;;;;;;6.50;4.38;;;20.00;69.90;;;;;;5009657;28;20065;-66
2022/06/04 08:21:21;;;;;;;4.47;3.80;;;20.20;69.90;;;;;;5010501;28;20054;-70
2022/06/04 08:23:48;;;;;;;7.15;4.50;;;20.30;69.90;;;;;;5009192;28;20046;-66
2022/06/04 08:26:14;;;;;;;4.43;3.58;;;20.30;69.60;;;;;;5012164;28;20022;-66
2022/06/04 08:28:39;;;;;;;9.07;4.43;;;20.30;69.70;;;;;;5006801;28;20032;-70
2022/06/04 08:31:10;;;;;;;4.47;4.03;;;20.40;69.60;;;;;;5014136;28;20524;-68
2022/06/04 08:33:36;;;;;;;6.72;3.70;;;20.40;69.30;;;;;;5010502;28;20018;-70
2022/06/04 08:36:06;;;;;;;5.05;4.55;;;20.50;69.60;;;;;;5002342;28;20018;-71
2022/06/04 08:38:32;;;;;;;6.43;4.00;;;20.50;69.30;;;;;;5009968;28;20058;-69
2022/06/04 08:41:00;;;;;;;5.72;4.95;;;20.50;69.30;;;;;;5009071;28;20038;-66
2022/06/04 08:43:44;;;;;;;7.47;5.00;;;20.50;69.40;;;;;;5004938;28;20022;-72
2022/06/04 08:46:16;;;;;;;5.00;4.50;;;20.50;69.40;;;;;;5006591;28;20041;-66
2022/06/04 08:48:42;;;;;;;6.53;5.22;;;20.50;69.50;;;;;;5006723;28;20025;-71
2022/06/04 08:51:23;;;;;;;7.03;4.80;;;20.60;70.30;;;;;;5004586;28;20671;-71
2022/06/04 08:53:52;;;;;;;6.15;4.22;;;20.50;69.80;;;;;;5007835;28;20101;-64
2022/06/04 08:59:32;;;;;;;7.18;5.18;;;20.60;69.70;;;;;;4999592;28;20060;-63
2022/06/04 09:02:01;;;;;;;5.80;3.90;;;20.70;69.90;;;;;;5011776;28;20026;-67
2022/06/04 09:04:32;;;;;;;6.43;4.75;;;20.70;70.10;;;;;;5012414;28;20037;-64
2022/06/04 09:07:06;;;;;;;5.30;4.35;;;20.80;70.00;;;;;;5017385;28;20399;-62
2022/06/04 09:09:44;;;;;;;7.18;4.40;;;20.90;69.80;;;;;;5011592;28;20080;-59
2022/06/04 09:12:24;;;;;;;6.65;4.97;;;20.90;70.00;;;;;;4999819;28;20581;-60
2022/06/04 09:14:57;;;;;;;11.95;5.97;;;21.00;69.50;;;;;;5010165;28;20472;-66
2022/06/04 09:17:40;;;;;;;7.43;4.88;;;20.90;69.50;;;;;;5009023;28;20034;-59
2022/06/04 09:20:17;;;;;;;6.43;5.53;;;20.90;69.80;;;;;;5003580;28;20022;-60
2022/06/04 09:22:45;;;;;;;6.18;5.57;;;20.90;69.80;;;;;;5009667;28;20034;-60
2022/06/04 09:25:22;;;;;;;10.63;6.28;;;20.90;69.90;;;;;;5011973;28;20033;-64
2022/06/04 09:28:11;;;;;;;6.43;4.60;;;20.90;70.10;;;;;;4997022;28;20023;-65
2022/06/04 09:30:44;;;;;;;7.82;6.10;;;20.90;70.60;;;;;;5007254;28;20030;-61
2022/06/04 09:33:42;;;;;;;5.43;3.92;;;21.00;70.60;;;;;;5008395;28;20030;-66
2022/06/04 09:36:12;;;;;;;8.23;5.97;;;21.00;70.50;;;;;;5004559;28;20038;-62
2022/06/04 09:38:37;;;;;;;9.65;6.05;;;21.10;70.50;;;;;;5011056;28;20471;-60
2022/06/04 09:41:18;;;;;;;7.70;5.28;;;21.00;70.30;;;;;;5008236;28;20038;-65
2022/06/04 09:43:45;;;;;;;9.20;5.00;;;21.00;70.30;;;;;;4997696;28;20432;-61
2022/06/04 09:46:13;;;;;;;5.47;4.60;;;21.10;70.30;;;;;;5000735;28;20065;-67
2022/06/04 09:48:47;;;;;;;6.60;5.55;;;21.10;70.70;;;;;;5002990;28;20028;-62
2022/06/04 09:51:20;;;;;;;10.65;5.85;;;21.20;70.30;;;;;;5009989;28;20036;-65
2022/06/04 09:54:02;;;;;;;8.43;6.68;;;21.20;70.50;;;;;;5006077;28;20387;-62
2022/06/04 09:56:40;;;;;;;9.02;6.47;;;21.20;70.30;;;;;;5008282;28;20033;-59
2022/06/04 09:59:30;;;;;;;11.23;5.75;;;21.20;70.40;;;;;;5005550;28;20028;-60
2022/06/04 10:02:10;;;;;;;6.55;5.88;;;21.20;70.30;;;;;;5003246;28;20014;-59
2022/06/04 10:04:40;;;;;;;9.93;6.03;;;21.30;70.60;;;;;;5004483;28;20041;-61
2022/06/04 10:07:08;;;;;;;7.93;5.95;;;21.30;70.50;;;;;;5007249;28;20021;-59
2022/06/04 10:09:55;;;;;;;8.23;6.45;;;21.30;70.30;;;;;;5002744;28;20055;-61
2022/06/04 10:15:32;;;;;;;8.80;5.22;;;21.20;70.80;;;;;;4969991;28;20105;-59
2022/06/04 10:18:18;;;;;;;9.20;6.28;;;21.30;71.30;;;;;;5008733;28;20046;-68
2022/06/04 10:20:56;;;;;;;9.88;7.32;;;21.30;70.80;;;;;;5005166;28;20045;-65
2022/06/04 10:23:23;;;;;;;11.13;6.38;;;21.40;70.80;;;;;;4992222;28;20376;-66
2022/06/04 10:26:08;;;;;;;7.25;6.57;;;21.40;71.10;;;;;;5009544;28;20113;-58
2022/06/04 10:28:42;;;;;;;8.13;6.70;;;21.40;71.10;;;;;;5008592;28;20117;-65
2022/06/04 10:31:25;;;;;;;9.70;6.45;;;21.40;71.00;;;;;;5012156;28;20432;-61
2022/06/04 10:34:24;;;;;;;6.28;5.70;;;21.40;71.10;;;;;;5010918;28;20029;-65
2022/06/04 10:37:40;;;;;;;11.32;7.90;;;21.40;70.70;;;;;;5009796;28;20557;-60
2022/06/04 10:40:36;;;;;;;9.27;7.63;;;21.40;71.00;;;;;;4999747;28;20972;-58
2022/06/04 10:43:40;;;;;;;8.45;7.15;;;21.40;70.80;;;;;;5006152;28;20030;-59
2022/06/04 10:46:36;;;;;;;8.38;7.18;;;21.40;71.00;;;;;;5007147;28;20406;-61
2022/06/04 10:49:21;;;;;;;7.82;6.53;;;21.40;70.90;;;;;;5009742;28;20081;-65
2022/06/04 10:51:59;;;;;;;9.32;7.65;;;21.30;71.10;;;;;;5010966;28;20471;-67
2022/06/04 10:54:37;;;;;;;7.22;6.50;;;21.40;71.40;;;;;;5010196;28;20056;-66
2022/06/04 10:57:20;;;;;;;9.18;7.70;;;21.40;71.70;;;;;;5008123;28;20084;-67
2022/06/04 10:59:52;;;;;;;10.82;7.15;;;21.30;71.90;;;;;;5011269;28;20026;-67
2022/06/04 11:02:39;;;;;;;9.45;7.55;;;21.40;71.80;;;;;;5008305;28;20041;-62
2022/06/04 11:05:19;;;;;;;9.80;7.85;;;21.40;71.40;;;;;;5008650;28;20077;-68
2022/06/04 11:08:19;;;;;;;8.93;8.02;;;21.40;71.70;;;;;;5009617;28;20030;-64
2022/06/04 11:11:12;;;;;;;10.93;8.55;;;21.40;71.30;;;;;;4990540;28;20506;-63
2022/06/04 11:13:46;;;;;;;9.70;6.55;;;21.40;71.50;;;;;;5008086;28;20079;-58
2022/06/04 11:16:37;;;;;;;8.15;7.35;;;21.50;72.30;;;;;;5005456;28;20076;-65
2022/06/04 11:19:48;;;;;;;8.40;7.60;;;21.60;71.60;;;;;;5003617;28;20034;-57
2022/06/04 11:22:23;;;;;;;10.40;8.32;;;21.50;71.20;;;;;;5008491;28;20113;-66
2022/06/04 11:24:52;;;;;;;9.27;7.43;;;21.50;71.20;;;;;;4992353;28;20046;-62
2022/06/04 11:27:30;;;;;;;15.35;9.38;;;21.50;71.70;;;;;;5005137;28;20156;-64
2022/06/04 11:29:56;;;;;;;11.20;8.95;;;21.50;71.60;;;;;;5009067;28;20023;-67
2022/06/04 11:32:33;;;;;;;11.38;9.13;;;21.50;72.20;;;;;;5010291;28;20056;-65
2022/06/04 11:35:41;;;;;;;10.13;7.32;;;21.50;71.80;;;;;;5014294;28;20394;-67
2022/06/04 11:38:25;;;;;;;10.25;7.80;;;21.60;72.50;;;;;;5013310;28;20033;-68
2022/06/04 11:41:12;;;;;;;10.98;8.60;;;21.60;71.90;;;;;;5009092;28;20475;-66
2022/06/04 11:43:40;;;;;;;10.52;9.05;;;21.70;71.80;;;;;;5010819;28;20103;-67
2022/06/04 11:46:24;;;;;;;10.90;9.15;;;21.60;71.80;;;;;;5008278;28;20169;-66
2022/06/04 11:49:21;;;;;;;12.98;7.57;;;21.60;71.70;;;;;;5009683;28;20100;-67
2022/06/04 11:52:11;;;;;;;10.57;8.73;;;21.60;71.80;;;;;;5002268;28;20034;-67
2022/06/04 11:55:02;;;;;;;9.40;8.50;;;21.60;72.10;;;;;;5002607;28;20022;-58
2022/06/04 11:57:34;;;;;;;12.68;8.43;;;21.70;71.90;;;;;;5006838;28;20028;-64
2022/06/04 12:00:15;;;;;;;10.35;9.30;;;21.70;72.20;;;;;;5009945;28;20092;-62
2022/06/04 12:02:50;;;;;;;9.20;7.60;;;21.70;72.00;;;;;;5012447;28;20172;-66
2022/06/04 12:06:00;;;;;;;9.73;7.53;;;21.70;72.30;;;;;;5009873;28;20136;-65
2022/06/04 12:08:35;;;;;;;9.18;6.80;;;21.70;71.70;;;;;;4991862;28;20041;-67
2022/06/04 12:11:23;;;;;;;8.35;7.32;;;21.80;71.90;;;;;;5008521;28;20030;-63
2022/06/04 12:13:54;;;;;;;9.43;6.97;;;21.80;72.10;;;;;;5005250;28;20026;-65
2022/06/04 12:16:34;;;;;;;11.10;8.15;;;21.90;72.30;;;;;;5005223;28;20022;-68
2022/06/04 12:24:15;;;;;;;9.40;8.13;;;21.90;71.80;;;;;;5010247;28;20026;-68
2022/06/04 12:25:16;;;;;;;9.73;8.65;;;21.90;71.00;;;;;;5009524;28;20045;-66
2022/06/04 12:27:57;;;;;;;11.38;8.15;;;21.90;71.50;;;;;;5012696;28;20034;-67
2022/06/04 12:30:42;;;;;;;10.10;7.97;;;21.90;71.30;;;;;;5010371;28;20046;-61
2022/06/04 12:33:28;;;;;;;10.82;7.97;;;21.90;71.80;;;;;;5005272;28;20026;-67
2022/06/04 12:36:04;;;;;;;12.50;7.30;;;21.90;72.00;;;;;;5004181;28;20041;-61
2022/06/04 12:38:41;;;;;;;10.20;7.95;;;21.90;72.00;;;;;;5006971;28;20025;-63
2022/06/04 12:41:15;;;;;;;10.13;8.57;;;22.00;72.10;;;;;;5010038;28;20088;-59
2022/06/04 12:43:46;;;;;;;11.18;6.10;;;22.00;72.30;;;;;;5005980;28;20033;-62
2022/06/04 12:46:24;;;;;;;8.43;6.57;;;22.00;72.10;;;;;;5003279;28;20026;-62
2022/06/04 12:48:59;;;;;;;8.80;7.22;;;22.10;71.90;;;;;;5003488;28;20051;-66
2022/06/04 12:51:44;;;;;;;8.32;6.93;;;22.10;71.70;;;;;;5006841;28;20030;-64
2022/06/04 12:54:27;;;;;;;10.82;8.00;;;22.10;71.60;;;;;;5009453;28;20049;-63
2022/06/04 12:56:56;;;;;;;9.73;8.70;;;22.20;71.70;;;;;;5011758;28;20032;-65
2022/06/04 12:59:29;;;;;;;8.60;7.57;;;22.20;71.70;;;;;;5012426;28;20072;-59
2022/06/04 13:01:54;;;;;;;11.77;6.78;;;22.20;72.00;;;;;;5010502;28;20054;-66
2022/06/04 13:04:23;;;;;;;12.57;9.05;;;22.20;72.20;;;;;;5010655;28;20069;-67
2022/06/04 13:06:55;;;;;;;12.07;8.32;;;22.20;71.90;;;;;;5013667;28;20029;-67
2022/06/04 13:09:21;;;;;;;9.23;7.20;;;22.20;72.10;;;;;;5032847;28;20028;-67
2022/06/04 13:11:46;;;;;;;9.13;6.72;;;22.30;72.20;;;;;;5025623;28;20038;-66
2022/06/04 13:14:21;;;;;;;9.07;6.88;;;22.30;72.70;;;;;;5015206;28;20113;-68
2022/06/04 13:16:56;;;;;;;11.68;8.02;;;22.30;72.40;;;;;;5015307;28;20022;-69
2022/06/04 13:19:41;;;;;;;10.52;9.45;;;22.30;72.20;;;;;;4985505;28;20081;-65
2022/06/04 13:22:28;;;;;;;11.88;8.98;;;22.30;71.80;;;;;;5001311;28;20026;-73
2022/06/04 13:24:57;;;;;;;9.27;8.10;;;22.30;72.70;;;;;;5011025;28;20144;-65
2022/06/04 13:27:38;;;;;;;10.93;8.10;;;22.30;72.60;;;;;;5009604;28;20511;-68